Main page
METAR-TAF:

METAR-TAF

Airports :

Yüksekova, Turkey

Hakkari–Yüksekova Airport

latitude: 37-33-06N, longitude: 44-14-01E, elevation: 1950 m

Current weather observation

The report was made 9 hours and 40 minutes ago, at 10:50 UTC
Wind 8 kt from the West/Southwest, varying between South and Northwest
Temperature 18°C
Humidity 28%
Pressure 1021 hPa
Visibility 10 km or more
Scattered clouds at a height of 3500 ft
Broken clouds at a height of 7000 ft

METAR: LTCW 301050Z 24008KT 190V310 9999 SCT035 BKN070 18/M01 Q1021

Time: 23:30 (20:30 UTC)

Forecast

The report was made 6 hours and 50 minutes ago, at 13:40 UTC
Forecast valid from 30 at 15 UTC to 30 at 24 UTC
Wind 2 kt from variable directions
Visibility 10 km or more
Scattered clouds at a height of 3500 ft

TAF: LTCW 301340Z 3015/3024 VRB02KT 9999 SCT035

Weather observations and forecasts of more than 4000 airports (METAR and TAF reports).

The available stations are represented by yellow and red dots on the map.

Hover mouse over dot to see the name of the station.

Then click to see weather observations and forecasts.

To change the map : click on the green buttons with a black cross to zoom in, on the green button with a dash to zoom out, or on the green arrows for adjacent maps.


METAR-TAF: